createdAt,value
2017-05-28T13:51:32.648Z,28.14
2017-05-28T13:52:32.911Z,28.12
2017-05-28T13:53:33.274Z,28.11
2017-05-28T13:54:32.925Z,28.03
2017-05-28T13:55:32.927Z,28.17
2017-05-28T13:56:32.936Z,28.09
2017-05-28T13:57:33.258Z,27.94
2017-05-28T13:58:33.285Z,27.86
2017-05-28T13:59:33.280Z,27.72
2017-05-28T14:00:32.966Z,27.74
2017-05-28T14:01:32.636Z,27.69
2017-05-28T14:02:32.978Z,27.69
2017-05-28T14:03:32.984Z,27.72
2017-05-28T14:04:33.295Z,27.75
2017-05-28T14:05:32.984Z,27.74
2017-05-28T14:06:33.309Z,27.71
2017-05-28T14:07:33.013Z,27.72
2017-05-28T14:08:33.151Z,27.69
2017-05-28T14:09:32.677Z,27.75
2017-05-28T14:10:33.017Z,27.71
2017-05-28T14:11:33.354Z,27.74
2017-05-28T14:12:33.029Z,27.76
2017-05-28T14:13:33.362Z,27.71
2017-05-28T14:14:32.702Z,27.71
2017-05-28T14:15:33.031Z,27.68
2017-05-28T14:16:33.355Z,27.69
2017-05-28T14:17:33.052Z,27.71
2017-05-28T14:18:33.382Z,27.72
2017-05-28T14:19:33.076Z,27.72
2017-05-28T14:20:33.071Z,27.8
2017-05-28T14:21:33.382Z,27.87
2017-05-28T14:22:33.105Z,27.87
2017-05-28T14:23:33.073Z,27.99
2017-05-28T14:24:33.076Z,28.02
2017-05-28T14:25:33.094Z,28.12
2017-05-28T14:26:33.425Z,28.18
2017-05-28T14:27:33.095Z,28.26
2017-05-28T14:28:33.417Z,28.28
2017-05-28T14:29:33.432Z,28.24
2017-05-28T14:30:33.193Z,28.23
2017-05-28T14:31:33.432Z,28.3
2017-05-28T14:32:33.119Z,28.21
2017-05-28T14:33:33.469Z,28.23
2017-05-28T14:34:32.804Z,28.18
2017-05-28T14:35:32.809Z,28.17
2017-05-28T14:36:33.463Z,28.14
2017-05-28T14:37:33.464Z,28.2
2017-05-28T14:38:33.467Z,28.2
2017-05-28T14:39:33.150Z,28.11
2017-05-28T14:40:33.480Z,27.99
2017-05-28T14:41:33.499Z,28.01
2017-05-28T14:42:32.855Z,27.99
2017-05-28T14:43:33.196Z,28.03
2017-05-28T14:44:32.879Z,27.93
2017-05-28T14:45:32.874Z,27.98
2017-05-28T14:46:33.513Z,28.03
2017-05-28T14:47:33.193Z,27.96
2017-05-28T14:48:33.526Z,27.93
2017-05-28T14:49:33.526Z,27.9
2017-05-28T14:50:33.226Z,27.84
2017-05-28T14:51:33.212Z,27.91
2017-05-28T14:52:33.238Z,27.81
2017-05-28T14:53:33.223Z,27.81
2017-05-28T14:54:33.226Z,27.8
2017-05-28T14:55:33.598Z,27.66
2017-05-28T14:56:33.241Z,27.76
2017-05-28T14:57:33.241Z,27.76
2017-05-28T14:58:33.253Z,27.72
2017-05-28T14:59:33.612Z,27.72
2017-05-28T15:00:33.260Z,27.65
2017-05-28T15:01:33.585Z,27.64
2017-05-28T15:02:33.596Z,27.69
2017-05-28T15:03:33.593Z,27.69
2017-05-28T15:04:33.599Z,27.81
2017-05-28T15:05:33.606Z,27.69
2017-05-28T15:06:33.297Z,27.71
2017-05-28T15:07:33.636Z,27.83
2017-05-28T15:08:33.299Z,27.74
2017-05-28T15:09:33.307Z,27.81
2017-05-28T15:10:33.633Z,27.81
2017-05-28T15:11:33.637Z,27.9
2017-05-28T15:12:33.650Z,27.8
2017-05-28T15:13:33.645Z,27.93
2017-05-28T15:14:33.657Z,27.86
2017-05-28T15:15:33.334Z,27.87
2017-05-28T15:16:33.339Z,27.86
2017-05-28T15:17:33.343Z,27.98
2017-05-28T15:18:33.347Z,27.99
2017-05-28T15:19:33.028Z,28.01
2017-05-28T15:20:33.358Z,27.96
2017-05-28T15:21:33.691Z,27.98
2017-05-28T15:22:33.366Z,28.09
2017-05-28T15:23:33.060Z,28.02
2017-05-28T15:24:33.709Z,27.96
2017-05-28T15:25:33.717Z,27.99
2017-05-28T15:26:33.711Z,28.02
2017-05-28T15:27:33.405Z,28.02
2017-05-28T15:28:33.398Z,28.01
2017-05-28T15:29:33.727Z,27.99
2017-05-28T15:30:33.751Z,27.96
2017-05-28T15:31:33.092Z,28.06
2017-05-28T15:32:33.117Z,28.05
2017-05-28T15:33:35.241Z,27.94
2017-05-28T15:34:33.775Z,28.01
2017-05-28T15:35:33.451Z,27.99
2017-05-28T15:36:33.769Z,27.98
2017-05-28T15:37:33.775Z,27.89
2017-05-28T15:38:33.774Z,27.99
2017-05-28T15:39:33.464Z,28.01
2017-05-28T15:40:33.778Z,27.99
2017-05-28T15:41:33.788Z,27.94
2017-05-28T15:42:33.473Z,28.02
2017-05-28T15:43:33.155Z,28.05
2017-05-28T15:44:33.478Z,27.99
2017-05-28T15:45:33.819Z,27.93
2017-05-28T15:46:33.490Z,28.01
2017-05-28T15:47:33.493Z,27.96
2017-05-28T15:48:33.822Z,28.02
2017-05-28T15:49:33.826Z,28.05
2017-05-28T15:50:33.523Z,28.02
2017-05-28T15:51:33.862Z,28.03
2017-05-28T15:52:33.850Z,28.02
2017-05-28T15:53:33.524Z,27.98
2017-05-28T15:54:33.863Z,27.98
2017-05-28T15:55:33.561Z,28.03
2017-05-28T15:56:33.860Z,27.91
2017-05-28T15:57:33.564Z,27.83
2017-05-28T15:58:33.881Z,27.84
2017-05-28T15:59:33.930Z,27.83
2017-05-28T16:00:33.902Z,27.84
2017-05-28T16:01:33.566Z,27.75
2017-05-28T16:02:33.894Z,27.79
2017-05-28T16:03:33.642Z,27.86
2017-05-28T16:04:33.911Z,27.8
2017-05-28T16:05:33.917Z,27.76
2017-05-28T16:06:33.934Z,27.76
2017-05-28T16:07:33.597Z,27.72
2017-05-28T16:08:33.631Z,27.8
2017-05-28T16:09:33.928Z,27.76
2017-05-28T16:10:33.945Z,27.71
2017-05-28T16:11:33.293Z,27.69
2017-05-28T16:12:33.619Z,27.66
2017-05-28T16:13:33.627Z,27.64
2017-05-28T16:14:33.976Z,27.69
2017-05-28T16:15:33.653Z,27.66
2017-05-28T16:16:33.964Z,27.75
2017-05-28T16:17:33.989Z,27.76
2017-05-28T16:18:33.650Z,27.76
2017-05-28T16:19:33.656Z,27.71
2017-05-28T16:20:33.983Z,27.8
2017-05-28T16:21:33.665Z,27.75
2017-05-28T16:22:33.702Z,27.81
2017-05-28T16:23:34.028Z,27.69
2017-05-28T16:24:33.721Z,27.83
2017-05-28T16:25:33.685Z,27.72
2017-05-28T16:26:34.014Z,27.68
2017-05-28T16:27:34.019Z,27.68
2017-05-28T16:28:34.023Z,27.71
2017-05-28T16:29:33.739Z,27.65
2017-05-28T16:30:33.388Z,27.64
2017-05-28T16:31:33.716Z,27.68
2017-05-28T16:32:34.050Z,27.64
2017-05-28T16:33:34.056Z,27.61
2017-05-28T16:34:34.058Z,27.61
2017-05-28T16:35:34.061Z,27.52
2017-05-28T16:36:33.761Z,27.53
2017-05-28T16:37:33.779Z,27.55
2017-05-28T16:38:34.075Z,27.52
2017-05-28T16:39:33.751Z,27.55
2017-05-28T16:40:33.436Z,27.52
2017-05-28T16:41:34.085Z,27.52
2017-05-28T16:42:34.113Z,27.49
2017-05-28T16:43:34.117Z,27.48
2017-05-28T16:44:34.107Z,27.49
2017-05-28T16:45:34.055Z,27.52
2017-05-28T16:46:34.327Z,27.57
2017-05-28T16:47:33.796Z,27.55
2017-05-28T16:48:34.148Z,27.62
2017-05-28T16:49:34.122Z,27.59
2017-05-28T16:50:33.829Z,27.52
2017-05-28T16:51:33.830Z,27.53
2017-05-28T16:52:33.831Z,27.51
2017-05-28T16:53:34.153Z,27.48
2017-05-28T16:54:33.521Z,27.48
2017-05-28T16:55:34.153Z,27.51
2017-05-28T16:56:34.178Z,27.42
2017-05-28T16:57:34.215Z,27.45
2017-05-28T16:58:34.169Z,27.36
2017-05-28T16:59:34.175Z,27.34
2017-05-28T17:00:33.532Z,27.3
2017-05-28T17:01:33.865Z,27.28
2017-05-28T17:02:33.936Z,27.36
2017-05-28T17:03:34.289Z,27.3
2017-05-28T17:04:34.020Z,27.33
2017-05-28T17:05:35.722Z,27.24
2017-05-28T17:06:33.950Z,27.26
2017-05-28T17:07:34.314Z,27.37
2017-05-28T17:08:33.994Z,27.3
2017-05-28T17:09:34.112Z,27.23
2017-05-28T17:10:34.089Z,27.24
2017-05-28T17:11:34.303Z,27.31
2017-05-28T17:12:34.046Z,27.31
2017-05-28T17:13:34.435Z,27.43
2017-05-28T17:14:34.423Z,27.48
2017-05-28T17:15:34.327Z,27.53
2017-05-28T17:16:34.137Z,27.57
2017-05-28T17:17:34.608Z,27.55
2017-05-28T17:18:34.251Z,27.64
2017-05-28T17:19:34.137Z,27.66
2017-05-28T17:20:34.468Z,27.66
2017-05-28T17:21:34.120Z,27.72
2017-05-28T17:22:34.076Z,27.62
2017-05-28T17:23:34.430Z,27.75
2017-05-28T17:24:33.831Z,27.66
2017-05-28T17:25:34.499Z,27.72
2017-05-28T17:26:34.306Z,27.76
2017-05-28T17:27:35.615Z,27.79
2017-05-28T17:28:34.213Z,27.76
2017-05-28T17:29:34.573Z,27.69
2017-05-28T17:30:34.236Z,27.72
2017-05-28T17:31:34.216Z,27.86
2017-05-28T17:32:34.225Z,27.79
2017-05-28T17:33:34.530Z,27.79
2017-05-28T17:34:34.192Z,27.74
2017-05-28T17:35:34.585Z,27.75
2017-05-28T17:36:34.299Z,27.84
2017-05-28T17:37:34.681Z,27.69
2017-05-28T17:38:34.597Z,27.74
2017-05-28T17:39:34.282Z,27.69
2017-05-28T17:40:33.916Z,27.72
2017-05-28T17:41:34.713Z,27.72
2017-05-28T17:42:34.239Z,27.83
2017-05-28T17:43:34.714Z,27.71
2017-05-28T17:44:34.423Z,27.71
2017-05-28T17:45:33.925Z,27.65
2017-05-28T17:46:34.522Z,27.64
2017-05-28T17:47:34.253Z,27.64
2017-05-28T17:48:34.548Z,27.66
2017-05-28T17:49:34.335Z,27.57
2017-05-28T17:50:34.345Z,27.52
2017-05-28T17:51:34.109Z,27.51
2017-05-28T17:52:34.330Z,27.43
2017-05-28T17:53:34.766Z,27.36
2017-05-28T17:54:34.402Z,27.3
2017-05-28T17:55:34.772Z,27.12
2017-05-28T17:56:34.829Z,27.09
2017-05-28T17:57:34.471Z,26.93
2017-05-28T17:58:34.413Z,26.87
2017-05-28T17:59:34.443Z,26.82
2017-05-28T18:00:34.720Z,26.67
2017-05-28T18:01:34.948Z,26.59
2017-05-28T18:02:35.278Z,26.5
2017-05-28T18:03:35.149Z,26.35
2017-05-28T18:04:34.335Z,26.26
2017-05-28T18:05:34.249Z,26.07
2017-05-28T18:06:35.206Z,25.97
2017-05-28T18:07:35.155Z,25.89
2017-05-28T18:08:34.388Z,25.78
2017-05-28T18:09:35.103Z,25.59
2017-05-28T18:10:34.592Z,25.51
2017-05-28T18:11:35.240Z,25.48
2017-05-28T18:12:35.417Z,25.24
2017-05-28T18:13:35.064Z,25.2
2017-05-28T18:14:34.614Z,25.09
2017-05-28T18:15:34.432Z,24.97
2017-05-28T18:16:34.798Z,24.83
2017-05-28T18:17:34.743Z,24.61
2017-05-28T18:18:34.807Z,24.49
2017-05-28T18:19:35.094Z,24.4
2017-05-28T18:20:35.067Z,24.19
2017-05-28T18:21:34.754Z,24.03
2017-05-28T18:22:35.047Z,23.82
2017-05-28T18:23:34.902Z,23.71
2017-05-28T18:24:35.113Z,23.67
2017-05-28T18:25:35.029Z,23.52
2017-05-28T18:26:35.274Z,23.42
2017-05-28T18:27:34.671Z,23.42
2017-05-28T18:28:34.865Z,23.24
2017-05-28T18:29:35.294Z,23.29
2017-05-28T18:30:34.602Z,23.16
2017-05-28T18:31:34.508Z,23.01
2017-05-28T18:32:35.447Z,22.97
2017-05-28T18:33:35.046Z,22.91
2017-05-28T18:34:34.946Z,22.76
2017-05-28T18:35:35.066Z,22.73
2017-05-28T18:36:35.478Z,22.61
2017-05-28T18:37:35.234Z,22.6
2017-05-28T18:38:34.688Z,22.57
2017-05-28T18:39:34.324Z,22.44
2017-05-28T18:40:35.478Z,22.34
2017-05-28T18:41:34.190Z,22.27
2017-05-28T18:42:35.156Z,22.31
2017-05-28T18:43:34.518Z,22.2
2017-05-28T18:44:34.843Z,22.18
2017-05-28T18:45:35.040Z,22.11
2017-05-28T18:46:34.483Z,22.08
2017-05-28T18:47:35.059Z,21.99
2017-05-28T18:48:34.550Z,21.92
2017-05-28T18:49:34.937Z,21.82
2017-05-28T18:50:34.216Z,21.77
2017-05-28T18:51:34.933Z,21.74
2017-05-28T18:52:34.972Z,21.67
2017-05-28T18:53:34.559Z,21.58
2017-05-28T18:54:34.902Z,21.51
2017-05-28T18:55:34.920Z,21.49
2017-05-28T18:56:34.606Z,21.33
2017-05-28T18:57:34.706Z,21.33
2017-05-28T18:58:34.801Z,21.34
2017-05-28T18:59:34.986Z,21.28
2017-05-28T19:00:35.021Z,21.19
2017-05-28T19:01:34.880Z,21.23
2017-05-28T19:02:35.157Z,21.22
2017-05-28T19:03:34.601Z,21.16
2017-05-28T19:04:34.896Z,21.13
2017-05-28T19:05:35.369Z,21.15
2017-05-28T19:06:34.630Z,21.04
2017-05-28T19:07:34.895Z,21.01
2017-05-28T19:08:34.959Z,20.88
2017-05-28T19:09:34.807Z,20.96
2017-05-28T19:10:35.358Z,20.81
2017-05-28T19:11:34.565Z,20.83
2017-05-28T19:12:35.289Z,20.71
2017-05-28T19:13:35.061Z,20.74
2017-05-28T19:14:34.619Z,20.63
2017-05-28T19:15:35.075Z,20.54
2017-05-28T19:16:34.255Z,20.49
2017-05-28T19:17:34.251Z,20.44
2017-05-28T19:18:34.571Z,20.4
2017-05-28T19:19:34.578Z,20.35
2017-05-28T19:20:34.572Z,20.38
2017-05-28T19:21:34.573Z,20.32
2017-05-28T19:22:34.575Z,20.26
2017-05-28T19:23:34.900Z,20.16
2017-05-28T19:24:34.581Z,20.04
2017-05-28T19:25:34.923Z,20.04
2017-05-28T19:26:34.902Z,20
2017-05-28T19:27:34.259Z,20
2017-05-28T19:28:34.901Z,20
2017-05-28T19:29:34.584Z,19.95
2017-05-28T19:30:34.907Z,19.82
2017-05-28T19:31:34.923Z,19.86
2017-05-28T19:32:34.902Z,19.8
2017-05-28T19:33:34.620Z,19.71
2017-05-28T19:34:34.587Z,19.72
2017-05-28T19:35:34.901Z,19.57
2017-05-28T19:36:34.938Z,19.61
2017-05-28T19:37:34.581Z,19.57
2017-05-28T19:38:34.592Z,19.56
2017-05-28T19:39:34.918Z,19.53
2017-05-28T19:40:34.265Z,19.52
2017-05-28T19:41:34.901Z,19.5
2017-05-28T19:42:34.912Z,19.46
2017-05-28T19:43:34.900Z,19.45
2017-05-28T19:44:34.602Z,19.53
2017-05-28T19:45:34.901Z,19.4
2017-05-28T19:46:34.589Z,19.32
2017-05-28T19:47:34.907Z,19.35
2017-05-28T19:48:34.930Z,19.32
2017-05-28T19:49:34.601Z,19.28
2017-05-28T19:50:34.903Z,19.23
2017-05-28T19:51:34.897Z,19.23
2017-05-28T19:52:34.590Z,19.23
2017-05-28T19:53:34.618Z,19.2
2017-05-28T19:54:34.338Z,19.24
2017-05-28T19:55:34.599Z,19.19
2017-05-28T19:56:34.577Z,19.17
2017-05-28T19:57:34.899Z,19.16
2017-05-28T19:58:34.268Z,19.09
2017-05-28T19:59:34.900Z,19.12
2017-05-28T20:00:35.856Z,19.09
2017-05-28T20:01:34.254Z,19.09
2017-05-28T20:02:34.622Z,19.02
2017-05-28T20:03:34.893Z,19.02
2017-05-28T20:04:35.225Z,18.99
2017-05-28T20:05:35.381Z,18.97
2017-05-28T20:06:34.922Z,18.96
2017-05-28T20:07:34.914Z,19
2017-05-28T20:08:34.589Z,18.96
2017-05-28T20:09:34.592Z,18.99
2017-05-28T20:10:34.571Z,18.91
2017-05-28T20:11:34.920Z,18.99
2017-05-28T20:12:34.722Z,18.96
2017-05-28T20:13:34.588Z,18.87
2017-05-28T20:14:34.889Z,18.87
2017-05-28T20:15:34.584Z,18.96
2017-05-28T20:16:34.247Z,18.94
2017-05-28T20:17:35.614Z,18.89
2017-05-28T20:18:34.589Z,18.91
2017-05-28T20:19:34.906Z,18.93
2017-05-28T20:20:35.300Z,18.89
2017-05-28T20:21:35.888Z,18.89
2017-05-28T20:22:34.882Z,18.89
2017-05-28T20:23:34.293Z,18.81
2017-05-28T20:24:34.885Z,18.9
2017-05-28T20:25:34.561Z,18.9
2017-05-28T20:26:34.859Z,18.84
2017-05-28T20:27:34.899Z,18.82
2017-05-28T20:28:34.899Z,18.81
2017-05-28T20:29:35.511Z,18.79
2017-05-28T20:30:34.556Z,18.78
2017-05-28T20:31:34.231Z,18.78
2017-05-28T20:32:34.872Z,18.79
2017-05-28T20:33:34.918Z,18.76
2017-05-28T20:34:34.915Z,18.72
2017-05-28T20:35:35.023Z,18.78
2017-05-28T20:36:35.081Z,18.68
2017-05-28T20:37:34.870Z,18.74
2017-05-28T20:38:34.884Z,18.65
2017-05-28T20:39:34.869Z,18.65
2017-05-28T20:40:34.871Z,18.66
2017-05-28T20:41:35.210Z,18.65
2017-05-28T20:42:35.070Z,18.66
2017-05-28T20:43:34.563Z,18.6
2017-05-28T20:44:34.224Z,18.6
2017-05-28T20:45:34.236Z,18.66
2017-05-28T20:46:35.448Z,18.53
2017-05-28T20:47:34.538Z,18.63
2017-05-28T20:48:34.884Z,18.51
2017-05-28T20:49:34.560Z,18.57
2017-05-28T20:50:34.856Z,18.54
2017-05-28T20:51:34.856Z,18.54
2017-05-28T20:52:34.859Z,18.54
2017-05-28T20:53:34.532Z,18.53
2017-05-28T20:54:34.855Z,18.51
2017-05-28T20:55:34.860Z,18.5
2017-05-28T20:56:34.852Z,18.47
2017-05-28T20:57:34.877Z,18.42
2017-05-28T20:58:34.529Z,18.41
2017-05-28T20:59:34.525Z,18.42
2017-05-28T21:00:34.845Z,18.41
2017-05-28T21:01:34.862Z,18.35
2017-05-28T21:02:34.214Z,18.34
2017-05-28T21:03:34.857Z,18.34
2017-05-28T21:04:34.539Z,18.31
2017-05-28T21:05:34.557Z,18.29
2017-05-28T21:06:34.518Z,18.31
2017-05-28T21:07:34.864Z,18.31
2017-05-28T21:08:34.516Z,18.27
2017-05-28T21:09:34.514Z,18.35
2017-05-28T21:10:34.530Z,18.26
2017-05-28T21:11:34.514Z,18.19
2017-05-28T21:12:34.844Z,18.31
2017-05-28T21:13:34.849Z,18.17
2017-05-28T21:14:34.514Z,18.26
2017-05-28T21:15:34.826Z,18.27
2017-05-28T21:16:34.520Z,18.23
2017-05-28T21:17:34.524Z,18.16
2017-05-28T21:18:34.824Z,18.27
2017-05-28T21:19:34.503Z,18.23
2017-05-28T21:20:34.842Z,18.16
2017-05-28T21:21:34.818Z,18.23
2017-05-28T21:22:34.819Z,18.21
2017-05-28T21:23:34.832Z,18.29
2017-05-28T21:24:34.525Z,18.29
2017-05-28T21:25:34.493Z,18.2
2017-05-28T21:26:34.491Z,18.27
2017-05-28T21:27:34.509Z,18.27
2017-05-28T21:28:34.488Z,18.2
2017-05-28T21:29:34.810Z,18.27
2017-05-28T21:30:34.212Z,18.21
2017-05-28T21:31:34.823Z,18.2
2017-05-28T21:32:34.165Z,18.14
2017-05-28T21:33:34.488Z,18.2
2017-05-28T21:34:34.827Z,18.1
2017-05-28T21:35:34.481Z,18.1
2017-05-28T21:36:34.495Z,18.02
2017-05-28T21:37:34.502Z,17.99
2017-05-28T21:38:34.485Z,18.03
2017-05-28T21:39:34.809Z,18.1
2017-05-28T21:40:34.472Z,18.05
2017-05-28T21:41:34.149Z,18.03
2017-05-28T21:42:34.468Z,17.96
2017-05-28T21:43:34.790Z,17.99
2017-05-28T21:44:34.142Z,18.01
2017-05-28T21:45:34.464Z,17.98
2017-05-28T21:46:34.781Z,17.96
2017-05-28T21:47:34.780Z,17.96
2017-05-28T21:48:34.816Z,17.95
2017-05-28T21:49:34.788Z,17.81
2017-05-28T21:50:34.477Z,17.86
2017-05-28T21:51:34.456Z,17.9
2017-05-28T21:52:34.468Z,17.86
2017-05-28T21:53:34.453Z,17.83
2017-05-28T21:54:34.772Z,17.77
2017-05-28T21:55:34.446Z,17.74
2017-05-28T21:56:34.451Z,17.68
2017-05-28T21:57:34.450Z,17.66
2017-05-28T21:58:34.456Z,17.63
2017-05-28T21:59:34.120Z,17.54
2017-05-28T22:00:34.115Z,17.6
2017-05-28T22:01:34.793Z,17.52
2017-05-28T22:02:34.801Z,17.5
2017-05-28T22:03:34.771Z,17.55
2017-05-28T22:04:34.449Z,17.45
2017-05-28T22:05:34.112Z,17.43
2017-05-28T22:06:34.429Z,17.36
2017-05-28T22:07:34.428Z,17.38
2017-05-28T22:08:34.755Z,17.32
2017-05-28T22:09:34.424Z,17.38
2017-05-28T22:10:34.743Z,17.42
2017-05-28T22:11:34.753Z,17.38
2017-05-28T22:12:34.442Z,17.35
2017-05-28T22:13:34.745Z,17.38
2017-05-28T22:14:34.416Z,17.42
2017-05-28T22:15:34.741Z,17.38
2017-05-28T22:16:34.747Z,17.43
2017-05-28T22:17:34.755Z,17.39
2017-05-28T22:18:34.725Z,17.39
2017-05-28T22:19:34.730Z,17.3
2017-05-28T22:20:34.406Z,17.3
2017-05-28T22:21:34.398Z,17.36
2017-05-28T22:22:34.404Z,17.31
2017-05-28T22:23:34.720Z,17.36
2017-05-28T22:24:34.414Z,17.4
2017-05-28T22:25:34.418Z,17.42
2017-05-28T22:26:34.732Z,17.4
2017-05-28T22:27:34.387Z,17.38
2017-05-28T22:28:34.718Z,17.36
2017-05-28T22:29:34.076Z,17.36
2017-05-28T22:30:34.702Z,17.32
2017-05-28T22:31:34.057Z,17.2
2017-05-28T22:32:34.764Z,17.27
2017-05-28T22:33:34.053Z,17.27
2017-05-28T22:34:34.708Z,17.25
2017-05-28T22:35:34.374Z,17.24
2017-05-28T22:36:34.723Z,17.27
2017-05-28T22:37:34.387Z,17.24
2017-05-28T22:38:34.736Z,17.22
2017-05-28T22:39:34.371Z,17.28
2017-05-28T22:40:34.722Z,17.27
2017-05-28T22:41:34.362Z,17.24
2017-05-28T22:42:34.360Z,17.25
2017-05-28T22:43:34.391Z,17.38
2017-05-28T22:44:34.356Z,17.31
2017-05-28T22:45:34.679Z,17.31
2017-05-28T22:46:34.352Z,17.35
2017-05-28T22:47:34.672Z,17.39
2017-05-28T22:48:34.410Z,17.38
2017-05-28T22:49:35.473Z,17.3
2017-05-28T22:50:34.668Z,17.4
2017-05-28T22:51:34.669Z,17.42
2017-05-28T22:52:34.352Z,17.3
2017-05-28T22:53:34.350Z,17.4
2017-05-28T22:54:34.013Z,17.36
2017-05-28T22:55:34.332Z,17.32
2017-05-28T22:56:34.701Z,17.22
2017-05-28T22:57:34.326Z,17.38
2017-05-28T22:58:34.006Z,17.35
2017-05-28T22:59:34.323Z,17.39
2017-05-28T23:00:35.389Z,17.31
2017-05-28T23:01:33.999Z,17.39
2017-05-28T23:02:34.320Z,17.25
2017-05-28T23:03:34.327Z,17.35
2017-05-28T23:04:34.311Z,17.32
2017-05-28T23:05:35.053Z,17.28
2017-05-28T23:06:35.247Z,17.35
2017-05-28T23:07:33.985Z,17.25
2017-05-28T23:08:34.627Z,17.35
2017-05-28T23:09:34.305Z,17.32
2017-05-28T23:10:34.302Z,17.25
2017-05-28T23:11:35.396Z,17.27
2017-05-28T23:12:34.306Z,17.36
2017-05-28T23:13:34.308Z,17.28
2017-05-28T23:14:33.974Z,17.25
2017-05-28T23:15:34.291Z,17.3
2017-05-28T23:16:35.038Z,17.24
2017-05-28T23:17:35.499Z,17.24
2017-05-28T23:18:34.607Z,17.21
2017-05-28T23:19:34.623Z,17.22
2017-05-28T23:20:34.278Z,17.18
2017-05-28T23:21:34.430Z,17.13
2017-05-28T23:22:34.984Z,17.2
2017-05-28T23:23:35.484Z,17.07
2017-05-28T23:24:34.593Z,17.18
2017-05-28T23:25:34.612Z,17.02
2017-05-28T23:26:34.588Z,17.13
2017-05-28T23:27:34.584Z,17.03
2017-05-28T23:28:34.259Z,17.06
2017-05-28T23:29:35.150Z,17.09
2017-05-28T23:30:35.586Z,17.06
2017-05-28T23:31:34.272Z,17.1
2017-05-28T23:32:34.253Z,17.09
2017-05-28T23:33:34.254Z,17.12
2017-05-28T23:34:33.952Z,17.07
2017-05-28T23:35:35.113Z,17.18
2017-05-28T23:36:35.309Z,17.18
2017-05-28T23:37:34.842Z,17.17
2017-05-28T23:38:34.588Z,17.12
2017-05-28T23:39:34.252Z,17.09
2017-05-28T23:40:34.574Z,17.12
2017-05-28T23:41:35.262Z,17.15
2017-05-28T23:42:35.134Z,17.09
2017-05-28T23:43:34.552Z,17.06
2017-05-28T23:44:34.233Z,17.17
2017-05-28T23:45:34.551Z,17.05
2017-05-28T23:46:34.222Z,17.09
2017-05-28T23:47:34.277Z,17.09
2017-05-28T23:48:34.608Z,17.09
2017-05-28T23:49:34.262Z,16.95
2017-05-28T23:50:34.785Z,17.07
2017-05-28T23:51:34.232Z,17.05
2017-05-28T23:52:35.500Z,17.07
2017-05-28T23:53:34.934Z,17.03
2017-05-28T23:54:33.879Z,17.03
2017-05-28T23:55:34.199Z,17.07
2017-05-28T23:56:33.877Z,17.07
2017-05-28T23:57:34.848Z,17.02
2017-05-28T23:58:34.757Z,16.99
2017-05-28T23:59:34.514Z,17.02
